createdAt,value
2022-12-22T00:00:01.433Z,42.50
2022-12-22T00:02:47.816Z,41.70
2022-12-22T00:05:37.774Z,41.11
2022-12-22T00:08:24.555Z,40.88
2022-12-22T00:11:10.674Z,40.75
2022-12-22T00:13:56.692Z,40.87
2022-12-22T00:16:43.087Z,41.07
2022-12-22T00:19:32.197Z,40.22
2022-12-22T00:22:23.466Z,39.86
2022-12-22T00:25:09.383Z,40.43
2022-12-22T00:27:55.936Z,40.12
2022-12-22T00:30:41.934Z,40.03
2022-12-22T00:33:28.105Z,40.14
2022-12-22T00:36:13.958Z,39.97
2022-12-22T00:39:00.016Z,39.58
2022-12-22T00:41:45.738Z,39.56
2022-12-22T00:44:31.673Z,39.42
2022-12-22T00:47:17.459Z,40.12
2022-12-22T00:50:03.933Z,40.18
2022-12-22T00:52:50.025Z,39.87
2022-12-22T00:55:37.194Z,39.72
2022-12-22T00:58:23.110Z,39.67
2022-12-22T01:01:09.342Z,39.97
2022-12-22T01:03:55.335Z,40.30
2022-12-22T01:06:48.577Z,39.81
2022-12-22T01:09:34.605Z,40.10
2022-12-22T01:12:21.705Z,39.87
2022-12-22T01:15:07.801Z,40.55
2022-12-22T01:17:54.108Z,40.08
2022-12-22T01:20:39.861Z,40.09
2022-12-22T01:23:29.214Z,39.90
2022-12-22T01:26:15.183Z,40.82
2022-12-22T01:29:01.277Z,40.12
2022-12-22T01:31:47.680Z,40.34
2022-12-22T01:34:34.044Z,41.65
2022-12-22T01:37:19.769Z,41.74
2022-12-22T01:40:06.088Z,41.85
2022-12-22T01:42:52.826Z,41.47
2022-12-22T01:45:44.597Z,40.90
2022-12-22T01:48:31.204Z,42.32
2022-12-22T01:51:17.715Z,42.03
2022-12-22T01:54:03.446Z,42.18
2022-12-22T01:56:49.592Z,42.69
2022-12-22T01:59:35.390Z,42.75
2022-12-22T02:02:25.969Z,41.48
2022-12-22T02:05:12.260Z,41.60
2022-12-22T02:08:04.275Z,41.28
2022-12-22T02:11:08.968Z,41.96
2022-12-22T02:14:13.748Z,41.65
2022-12-22T02:17:21.106Z,41.50
2022-12-22T02:20:13.208Z,41.40
2022-12-22T02:23:04.803Z,40.94
2022-12-22T02:25:54.842Z,40.95
2022-12-22T02:28:41.133Z,41.58
2022-12-22T02:31:27.146Z,40.99
2022-12-22T02:34:13.965Z,40.37
2022-12-22T02:36:59.501Z,40.00
2022-12-22T02:39:45.965Z,39.68
2022-12-22T02:42:58.014Z,39.72
2022-12-22T02:45:58.207Z,40.02
2022-12-22T02:48:46.235Z,39.66
2022-12-22T02:51:36.425Z,40.14
2022-12-22T02:54:22.304Z,40.00
2022-12-22T02:57:08.807Z,40.30
2022-12-22T02:59:54.736Z,40.16
2022-12-22T03:02:41.331Z,40.27
2022-12-22T03:05:27.556Z,39.62
2022-12-22T03:08:13.775Z,40.16
2022-12-22T03:10:59.566Z,40.00
2022-12-22T03:13:45.791Z,40.13
2022-12-22T03:16:31.431Z,39.63
2022-12-22T03:19:17.748Z,40.15
2022-12-22T03:22:06.930Z,40.08
2022-12-22T03:24:53.389Z,39.56
2022-12-22T03:27:20.563Z,38.93
2022-12-22T03:29:48.181Z,39.48
2022-12-22T03:32:15.388Z,39.69
2022-12-22T03:34:42.684Z,40.72
2022-12-22T03:37:10.144Z,40.02
2022-12-22T03:39:37.340Z,40.15
2022-12-22T03:42:23.231Z,40.79
2022-12-22T03:45:09.299Z,41.13
2022-12-22T03:47:36.480Z,41.37
2022-12-22T03:50:04.067Z,41.46
2022-12-22T03:52:31.282Z,42.01
2022-12-22T03:54:58.427Z,41.33
2022-12-22T03:57:25.860Z,41.47
2022-12-22T03:59:53.037Z,40.94
2022-12-22T04:02:20.315Z,41.72
2022-12-22T04:04:47.897Z,41.81
2022-12-22T04:07:15.153Z,41.64
2022-12-22T04:10:02.331Z,41.19
2022-12-22T04:12:48.641Z,41.52
2022-12-22T04:15:15.889Z,41.22
2022-12-22T04:17:43.430Z,41.66
2022-12-22T04:20:10.817Z,42.39
2022-12-22T04:22:38.006Z,41.72
2022-12-22T04:25:05.715Z,41.16
2022-12-22T04:27:32.903Z,41.34
2022-12-22T04:30:00.157Z,41.35
2022-12-22T04:32:27.611Z,41.36
2022-12-22T04:34:54.782Z,41.53
2022-12-22T04:37:22.004Z,41.52
2022-12-22T04:39:49.473Z,41.00
2022-12-22T04:42:16.619Z,41.32
2022-12-22T04:44:43.823Z,41.02
2022-12-22T04:47:11.249Z,41.61
2022-12-22T04:49:38.405Z,41.32
2022-12-22T04:52:05.578Z,41.33
2022-12-22T04:54:33.066Z,41.62
2022-12-22T04:57:00.357Z,41.73
2022-12-22T04:59:27.510Z,42.32
2022-12-22T05:01:55.084Z,43.14
2022-12-22T05:04:24.038Z,42.36
2022-12-22T05:06:51.326Z,42.30
2022-12-22T05:09:18.767Z,42.44
2022-12-22T05:11:45.995Z,42.46
2022-12-22T05:14:13.167Z,42.09
2022-12-22T05:16:40.681Z,41.80
2022-12-22T05:19:07.949Z,42.17
2022-12-22T05:21:35.208Z,42.72
2022-12-22T05:24:02.695Z,42.30
2022-12-22T05:26:29.932Z,43.11
2022-12-22T05:28:57.077Z,42.67
2022-12-22T05:31:24.835Z,42.82
2022-12-22T05:33:52.226Z,42.51
2022-12-22T05:36:19.396Z,43.66
2022-12-22T05:38:46.870Z,43.02
2022-12-22T05:41:14.084Z,43.38
2022-12-22T05:43:41.359Z,42.85
2022-12-22T05:46:10.284Z,43.05
2022-12-22T05:48:39.348Z,42.86
2022-12-22T05:51:09.959Z,42.34
2022-12-22T05:53:37.753Z,42.26
2022-12-22T05:56:05.214Z,42.44
2022-12-22T05:58:33.081Z,42.76
2022-12-22T06:01:00.779Z,42.43
2022-12-22T06:03:28.747Z,43.17
2022-12-22T06:05:56.161Z,41.83
2022-12-22T06:08:23.620Z,41.45
2022-12-22T06:10:51.154Z,42.69
2022-12-22T06:13:18.362Z,43.04
2022-12-22T06:15:45.593Z,42.71
2022-12-22T06:18:13.844Z,42.15
2022-12-22T06:20:41.065Z,42.62
2022-12-22T06:23:08.249Z,42.23
2022-12-22T06:25:35.738Z,42.31
2022-12-22T06:28:02.954Z,42.62
2022-12-22T06:30:33.567Z,42.51
2022-12-22T06:33:01.767Z,43.02
2022-12-22T06:35:29.078Z,42.31
2022-12-22T06:37:56.271Z,41.76
2022-12-22T06:40:23.745Z,41.92
2022-12-22T06:43:10.025Z,41.89
2022-12-22T06:45:41.694Z,42.67
2022-12-22T06:48:09.570Z,42.44
2022-12-22T06:50:36.807Z,42.53
2022-12-22T06:53:04.369Z,42.42
2022-12-22T06:55:31.616Z,42.40
2022-12-22T06:57:58.829Z,42.15
2022-12-22T07:00:26.319Z,41.96
2022-12-22T07:02:53.800Z,42.63
2022-12-22T07:05:21.365Z,42.98
2022-12-22T07:07:48.846Z,42.11
2022-12-22T07:10:16.007Z,42.69
2022-12-22T07:12:43.203Z,42.52
2022-12-22T07:15:10.773Z,42.43
2022-12-22T07:17:38.218Z,42.52
2022-12-22T07:20:05.561Z,42.25
2022-12-22T07:22:33.012Z,42.07
2022-12-22T07:25:00.177Z,41.95
2022-12-22T07:27:27.334Z,42.28
2022-12-22T07:29:54.770Z,42.15
2022-12-22T07:32:21.995Z,42.13
2022-12-22T07:34:49.153Z,41.37
2022-12-22T07:37:16.590Z,42.42
2022-12-22T07:39:43.763Z,42.98
2022-12-22T07:42:30.735Z,42.65
2022-12-22T07:44:58.185Z,44.02
2022-12-22T07:47:28.733Z,42.84
2022-12-22T07:50:19.668Z,42.75
2022-12-22T07:52:46.821Z,43.48
2022-12-22T07:55:14.363Z,43.45
2022-12-22T07:57:41.546Z,44.02
2022-12-22T08:00:09.147Z,43.10
2022-12-22T08:02:39.688Z,43.01
2022-12-22T08:05:08.023Z,42.74
2022-12-22T08:07:35.351Z,42.22
2022-12-22T08:10:02.544Z,42.18
2022-12-22T08:12:30.880Z,41.76
2022-12-22T08:14:58.547Z,41.35
2022-12-22T08:17:29.045Z,41.10
2022-12-22T08:19:56.498Z,41.06
2022-12-22T08:22:24.065Z,41.11
2022-12-22T08:24:52.038Z,40.95
2022-12-22T08:27:26.378Z,41.34
2022-12-22T08:29:54.933Z,40.57
2022-12-22T08:32:22.426Z,46.12
2022-12-22T08:34:50.833Z,46.84
2022-12-22T08:37:18.631Z,45.19
2022-12-22T08:39:46.800Z,45.17
2022-12-22T08:42:14.473Z,46.02
2022-12-22T08:44:41.677Z,46.31
2022-12-22T08:47:16.456Z,46.78
2022-12-22T08:49:44.190Z,46.26
2022-12-22T08:52:18.062Z,47.25
2022-12-22T08:54:46.245Z,46.76
2022-12-22T08:57:13.689Z,47.90
2022-12-22T08:59:40.872Z,45.62
2022-12-22T09:02:08.146Z,47.07
2022-12-22T09:04:36.638Z,45.90
2022-12-22T09:07:03.837Z,46.39
2022-12-22T09:09:31.835Z,49.28
2022-12-22T09:11:59.287Z,47.29
2022-12-22T09:14:26.552Z,47.63
2022-12-22T09:16:53.835Z,47.52
2022-12-22T09:19:21.367Z,46.83
2022-12-22T09:21:48.538Z,51.00
2022-12-22T09:24:15.876Z,49.33
2022-12-22T09:26:49.888Z,48.67
2022-12-22T09:29:17.503Z,49.07
2022-12-22T09:31:45.137Z,49.40
2022-12-22T09:34:17.618Z,49.85
2022-12-22T09:36:46.399Z,48.34
2022-12-22T09:39:13.598Z,46.77
2022-12-22T09:41:45.358Z,47.17
2022-12-22T09:44:32.752Z,46.34
2022-12-22T09:47:01.047Z,46.52
2022-12-22T09:49:28.492Z,48.52
2022-12-22T09:51:56.817Z,46.67
2022-12-22T09:54:24.251Z,45.13
2022-12-22T09:56:51.705Z,46.95
2022-12-22T09:59:20.000Z,50.30
2022-12-22T10:02:02.079Z,46.83
2022-12-22T10:04:33.984Z,44.83
2022-12-22T10:07:19.334Z,44.56
2022-12-22T10:09:50.355Z,47.55
2022-12-22T10:12:23.041Z,47.25
2022-12-22T10:14:51.143Z,45.58
2022-12-22T10:17:25.594Z,46.52
2022-12-22T10:19:53.778Z,48.99
2022-12-22T10:22:30.125Z,45.41
2022-12-22T10:24:58.382Z,45.03
2022-12-22T10:27:29.321Z,45.96
2022-12-22T10:30:17.751Z,45.67
2022-12-22T10:33:00.426Z,46.48
2022-12-22T10:35:27.570Z,51.21
2022-12-22T10:37:55.049Z,52.34
2022-12-22T10:40:22.517Z,47.76
2022-12-22T10:42:56.133Z,49.12
2022-12-22T10:45:24.516Z,47.91
2022-12-22T10:47:52.850Z,47.28
2022-12-22T10:50:20.007Z,48.09
2022-12-22T10:52:56.965Z,52.24
2022-12-22T10:55:28.806Z,55.54
2022-12-22T10:58:08.516Z,54.71
2022-12-22T11:00:36.229Z,52.76
2022-12-22T11:03:05.129Z,50.63
2022-12-22T11:05:32.535Z,49.77
2022-12-22T11:08:19.942Z,50.78
2022-12-22T11:11:07.653Z,49.21
2022-12-22T11:13:35.623Z,47.13
2022-12-22T11:16:13.540Z,46.94
2022-12-22T11:18:46.850Z,45.95
2022-12-22T11:21:24.540Z,46.20
2022-12-22T11:24:10.565Z,45.73
2022-12-22T11:26:37.998Z,46.14
2022-12-22T11:29:11.129Z,45.07
2022-12-22T11:31:41.420Z,44.56
2022-12-22T11:34:31.288Z,44.73
2022-12-22T11:37:01.864Z,47.35
2022-12-22T11:39:38.881Z,45.97
2022-12-22T11:42:06.479Z,46.22
2022-12-22T11:44:52.490Z,48.24
2022-12-22T11:47:31.882Z,46.93
2022-12-22T11:49:59.153Z,48.44
2022-12-22T11:52:55.678Z,46.22
2022-12-22T11:55:25.827Z,45.39
2022-12-22T11:57:56.474Z,46.67
2022-12-22T12:00:32.573Z,44.76
2022-12-22T12:03:29.337Z,42.71
2022-12-22T12:06:15.362Z,44.53
2022-12-22T12:09:00.931Z,43.24
2022-12-22T12:11:34.360Z,44.65
2022-12-22T12:14:10.949Z,44.37
2022-12-22T12:16:38.115Z,44.89
2022-12-22T12:19:08.457Z,43.82
2022-12-22T12:21:38.691Z,43.41
2022-12-22T12:24:26.367Z,44.76
2022-12-22T12:26:56.343Z,47.00
2022-12-22T12:29:35.143Z,46.22
2022-12-22T12:32:05.455Z,43.53
2022-12-22T12:34:34.334Z,46.45
2022-12-22T12:37:03.106Z,43.01
2022-12-22T12:39:30.426Z,42.87
2022-12-22T12:42:07.017Z,42.25
2022-12-22T12:44:34.841Z,42.88
2022-12-22T12:47:02.325Z,43.03
2022-12-22T12:49:38.826Z,44.14
2022-12-22T12:52:06.945Z,44.96
2022-12-22T12:54:40.187Z,44.74
2022-12-22T12:57:07.575Z,46.83
2022-12-22T12:59:40.662Z,46.87
2022-12-22T13:02:26.861Z,46.47
2022-12-22T13:05:00.168Z,45.54
2022-12-22T13:07:46.239Z,45.00
2022-12-22T13:10:20.509Z,45.13
2022-12-22T13:12:51.740Z,47.71
2022-12-22T13:15:31.033Z,45.71
2022-12-22T13:17:58.735Z,47.01
2022-12-22T13:20:31.240Z,47.51
2022-12-22T13:23:00.104Z,47.25
2022-12-22T13:25:31.375Z,45.68
2022-12-22T13:27:58.853Z,44.33
2022-12-22T13:30:29.319Z,44.26
2022-12-22T13:32:58.011Z,42.81
2022-12-22T13:35:32.160Z,43.09
2022-12-22T13:38:00.893Z,42.71
2022-12-22T13:40:31.161Z,43.16
2022-12-22T13:43:02.514Z,42.87
2022-12-22T13:45:30.052Z,44.36
2022-12-22T13:47:57.435Z,43.33
2022-12-22T13:50:28.803Z,47.55
2022-12-22T13:52:56.249Z,47.89
2022-12-22T13:55:24.874Z,48.83
2022-12-22T13:57:58.282Z,50.21
2022-12-22T14:00:26.676Z,49.72
2022-12-22T14:02:54.341Z,48.99
2022-12-22T14:05:21.761Z,49.64
2022-12-22T14:08:05.372Z,48.47
2022-12-22T14:10:37.890Z,50.37
2022-12-22T14:13:06.698Z,51.42
2022-12-22T14:15:34.527Z,48.69
2022-12-22T14:18:01.769Z,48.96
2022-12-22T14:20:36.553Z,48.50
2022-12-22T14:23:19.491Z,50.54
2022-12-22T14:25:46.805Z,51.07
2022-12-22T14:28:21.981Z,49.42
2022-12-22T14:30:50.224Z,48.05
2022-12-22T14:33:28.503Z,49.49
2022-12-22T14:36:06.810Z,48.29
2022-12-22T14:38:41.168Z,47.90
2022-12-22T14:41:38.503Z,49.35
2022-12-22T14:44:05.959Z,50.33
2022-12-22T14:46:38.668Z,48.21
2022-12-22T14:49:11.294Z,48.18
2022-12-22T14:51:38.443Z,47.28
2022-12-22T14:54:05.637Z,47.20
2022-12-22T14:56:33.224Z,46.23
2022-12-22T14:59:22.261Z,45.54
2022-12-22T15:02:00.162Z,45.74
2022-12-22T15:04:27.500Z,45.79
2022-12-22T15:07:37.289Z,45.54
2022-12-22T15:10:15.118Z,45.46
2022-12-22T15:12:43.339Z,44.82
2022-12-22T15:15:15.322Z,46.04
2022-12-22T15:17:43.824Z,45.94
2022-12-22T15:20:14.223Z,47.94
2022-12-22T15:22:41.366Z,45.56
2022-12-22T15:25:15.764Z,45.91
2022-12-22T15:27:43.779Z,46.57
2022-12-22T15:30:13.713Z,46.52
2022-12-22T15:32:41.169Z,46.88
2022-12-22T15:35:16.307Z,49.02
2022-12-22T15:37:43.643Z,49.06
2022-12-22T15:40:18.124Z,46.96
2022-12-22T15:42:45.306Z,47.34
2022-12-22T15:45:13.311Z,48.22
2022-12-22T15:47:41.577Z,50.97
2022-12-22T15:50:10.816Z,48.37
2022-12-22T15:52:38.315Z,50.03
2022-12-22T15:55:05.667Z,49.45
2022-12-22T15:57:32.831Z,50.06
2022-12-22T16:00:00.483Z,50.91
2022-12-22T16:02:27.801Z,51.25
2022-12-22T16:04:58.065Z,52.64
2022-12-22T16:07:25.208Z,51.74
2022-12-22T16:09:52.346Z,51.76
2022-12-22T16:12:19.870Z,52.03
2022-12-22T16:14:50.627Z,52.74
2022-12-22T16:17:22.517Z,51.14
2022-12-22T16:19:50.037Z,50.68
2022-12-22T16:22:17.859Z,50.18
2022-12-22T16:24:45.715Z,50.79
2022-12-22T16:27:13.384Z,50.95
2022-12-22T16:29:44.363Z,49.88
2022-12-22T16:32:39.559Z,49.92
2022-12-22T16:35:14.972Z,49.15
2022-12-22T16:37:42.222Z,48.69
2022-12-22T16:40:10.025Z,48.50
2022-12-22T16:45:23.098Z,48.18
2022-12-22T16:47:51.458Z,48.17
2022-12-22T16:50:20.256Z,47.21
2022-12-22T16:52:47.894Z,47.36
2022-12-22T16:55:16.266Z,49.85
2022-12-22T16:57:43.756Z,46.84
2022-12-22T17:00:17.682Z,47.56
2022-12-22T17:02:49.848Z,47.12
2022-12-22T17:05:23.451Z,49.05
2022-12-22T17:07:50.626Z,48.80
2022-12-22T17:10:18.119Z,47.84
2022-12-22T17:12:45.334Z,48.54
2022-12-22T17:15:22.106Z,48.73
2022-12-22T17:17:51.867Z,48.24
2022-12-22T17:20:20.313Z,47.63
2022-12-22T17:23:00.665Z,48.08
2022-12-22T17:25:28.683Z,48.05
2022-12-22T17:27:58.963Z,47.06
2022-12-22T17:30:26.615Z,47.75
2022-12-22T17:32:54.128Z,47.67
2022-12-22T17:35:22.731Z,48.67
2022-12-22T17:37:49.877Z,47.35
2022-12-22T17:40:27.539Z,47.28
2022-12-22T17:42:54.952Z,47.15
2022-12-22T17:45:22.483Z,47.77
2022-12-22T17:47:49.867Z,48.37
2022-12-22T17:50:20.468Z,49.92
2022-12-22T17:52:48.032Z,49.56
2022-12-22T17:56:06.018Z,49.16
2022-12-22T17:58:16.386Z,48.62
2022-12-22T18:00:43.775Z,50.11
2022-12-22T18:03:14.935Z,49.76
2022-12-22T18:05:43.520Z,49.26
2022-12-22T18:08:18.663Z,48.81
2022-12-22T18:10:45.899Z,49.26
2022-12-22T18:13:17.860Z,48.10
2022-12-22T18:15:45.124Z,48.16
2022-12-22T18:18:13.913Z,48.38
2022-12-22T18:20:41.504Z,48.33
2022-12-22T18:23:15.466Z,48.44
2022-12-22T18:25:43.043Z,49.02
2022-12-22T18:28:14.764Z,48.20
2022-12-22T18:30:42.087Z,47.68
2022-12-22T18:33:09.669Z,48.41
2022-12-22T18:35:37.059Z,49.30
2022-12-22T18:38:04.409Z,48.03
2022-12-22T18:40:31.809Z,48.04
2022-12-22T18:42:59.569Z,47.88
2022-12-22T18:45:27.854Z,48.12
2022-12-22T18:47:55.699Z,47.63
2022-12-22T18:50:23.907Z,47.36
2022-12-22T18:52:54.998Z,46.53
2022-12-22T18:55:26.928Z,46.50
2022-12-22T18:57:54.690Z,47.64
2022-12-22T19:00:26.098Z,47.83
2022-12-22T19:02:57.706Z,48.41
2022-12-22T19:05:28.010Z,48.29
2022-12-22T19:07:55.644Z,48.13
2022-12-22T19:10:27.823Z,48.76
2022-12-22T19:12:55.820Z,47.98
2022-12-22T19:15:30.738Z,47.27
2022-12-22T19:17:57.928Z,46.90
2022-12-22T19:20:26.125Z,47.90
2022-12-22T19:22:53.860Z,47.25
2022-12-22T19:25:22.115Z,47.32
2022-12-22T19:27:51.504Z,47.30
2022-12-22T19:30:20.233Z,46.69
2022-12-22T19:32:50.180Z,46.67
2022-12-22T19:35:19.687Z,47.36
2022-12-22T19:37:48.078Z,48.21
2022-12-22T19:40:15.598Z,48.06
2022-12-22T19:42:44.007Z,47.73
2022-12-22T19:45:21.274Z,47.98
2022-12-22T19:47:50.733Z,50.17
2022-12-22T19:50:20.257Z,50.79
2022-12-22T19:52:48.241Z,50.01
2022-12-22T19:55:16.269Z,51.01
2022-12-22T19:57:43.706Z,52.06
2022-12-22T20:00:21.138Z,51.00
2022-12-22T20:02:49.882Z,53.81
2022-12-22T20:05:17.899Z,54.06
2022-12-22T20:07:45.395Z,55.75
2022-12-22T20:10:12.842Z,52.67
2022-12-22T20:12:42.352Z,56.37
2022-12-22T20:15:20.181Z,57.07
2022-12-22T20:17:48.925Z,57.93
2022-12-22T20:20:17.567Z,58.90
2022-12-22T20:22:46.323Z,59.84
2022-12-22T20:25:17.167Z,57.31
2022-12-22T20:27:44.653Z,58.27
2022-12-22T20:30:32.512Z,56.65
2022-12-22T20:33:00.406Z,56.08
2022-12-22T20:35:27.700Z,58.12
2022-12-22T20:37:55.284Z,59.37
2022-12-22T20:40:24.689Z,57.91
2022-12-22T20:42:52.719Z,56.63
2022-12-22T20:45:23.204Z,56.60
2022-12-22T20:47:50.817Z,56.35
2022-12-22T20:50:26.164Z,57.83
2022-12-22T20:52:54.622Z,58.94
2022-12-22T20:55:23.412Z,56.54
2022-12-22T20:57:51.113Z,59.24
2022-12-22T21:00:19.733Z,57.39
2022-12-22T21:02:47.006Z,57.94
2022-12-22T21:05:15.543Z,56.05
2022-12-22T21:07:44.093Z,56.12
2022-12-22T21:10:14.353Z,56.75
2022-12-22T21:12:41.860Z,54.73
2022-12-22T21:15:09.803Z,55.37
2022-12-22T21:17:37.040Z,54.97
2022-12-22T21:20:04.752Z,54.87
2022-12-22T21:22:32.268Z,55.03
2022-12-22T21:24:59.448Z,55.96
2022-12-22T21:27:26.744Z,55.39
2022-12-22T21:29:54.168Z,52.81
2022-12-22T21:32:21.335Z,52.34
2022-12-22T21:34:48.510Z,51.92
2022-12-22T21:37:16.657Z,51.09
2022-12-22T21:39:47.636Z,50.15
2022-12-22T21:42:15.212Z,50.67
2022-12-22T21:44:42.728Z,49.88
2022-12-22T21:47:14.803Z,50.39
2022-12-22T21:49:44.990Z,50.03
2022-12-22T21:52:12.428Z,49.11
2022-12-22T21:54:39.577Z,48.37
2022-12-22T21:57:06.747Z,50.09
2022-12-22T21:59:34.218Z,48.47
2022-12-22T22:02:01.543Z,49.47
2022-12-22T22:04:29.167Z,49.60
2022-12-22T22:06:56.866Z,50.63
2022-12-22T22:09:24.206Z,50.30
2022-12-22T22:12:13.301Z,51.01
2022-12-22T22:14:40.457Z,51.26
2022-12-22T22:17:08.722Z,51.96
2022-12-22T22:19:35.958Z,52.10
2022-12-22T22:22:03.588Z,52.05
2022-12-22T22:24:31.162Z,52.15
2022-12-22T22:27:02.626Z,53.09
2022-12-22T22:29:29.808Z,52.47
2022-12-22T22:31:57.302Z,51.30
2022-12-22T22:34:26.714Z,53.78
2022-12-22T22:36:53.921Z,52.33
2022-12-22T22:39:22.121Z,51.84
2022-12-22T22:41:51.544Z,52.02
2022-12-22T22:44:21.102Z,50.77
2022-12-22T22:46:48.600Z,50.87
2022-12-22T22:49:15.824Z,50.84
2022-12-22T22:51:43.026Z,49.47
2022-12-22T22:54:11.446Z,48.92
2022-12-22T22:56:38.846Z,48.62
2022-12-22T22:59:06.043Z,48.89
2022-12-22T23:01:33.532Z,48.47
2022-12-22T23:04:00.834Z,48.54
2022-12-22T23:06:28.127Z,50.04
2022-12-22T23:08:55.572Z,48.96
2022-12-22T23:11:25.242Z,48.20
2022-12-22T23:13:55.317Z,47.91
2022-12-22T23:16:24.441Z,47.99
2022-12-22T23:18:54.870Z,50.26
2022-12-22T23:21:27.371Z,49.58
2022-12-22T23:23:58.065Z,49.40
2022-12-22T23:26:25.545Z,48.61
2022-12-22T23:28:56.456Z,49.51
2022-12-22T23:31:26.840Z,48.87
2022-12-22T23:33:55.653Z,48.57
2022-12-22T23:36:22.824Z,48.97
2022-12-22T23:38:51.785Z,52.24
2022-12-22T23:41:19.321Z,51.59
2022-12-22T23:43:46.502Z,51.58
2022-12-22T23:46:16.013Z,50.11
2022-12-22T23:48:43.214Z,53.38
2022-12-22T23:51:10.795Z,51.18
2022-12-22T23:53:38.815Z,54.37
2022-12-22T23:56:06.126Z,53.13
2022-12-22T23:58:33.377Z,55.66
